createdAt,value
2022-09-29T00:00:06.748Z,0.00
2022-09-29T00:01:06.821Z,0.00
2022-09-29T00:02:06.947Z,0.00
2022-09-29T00:03:06.747Z,0.00
2022-09-29T00:04:06.734Z,0.00
2022-09-29T00:05:06.692Z,0.00
2022-09-29T00:06:06.733Z,0.00
2022-09-29T00:07:06.643Z,0.00
2022-09-29T00:08:06.650Z,0.00
2022-09-29T00:09:06.625Z,0.00
2022-09-29T00:10:06.692Z,0.00
2022-09-29T00:11:06.709Z,0.00
2022-09-29T00:12:06.575Z,0.00
2022-09-29T00:13:06.580Z,0.00
2022-09-29T00:14:07.203Z,0.00
2022-09-29T00:15:06.560Z,0.00
2022-09-29T00:16:06.659Z,0.00
2022-09-29T00:17:06.728Z,0.00
2022-09-29T00:18:14.831Z,0.00
2022-09-29T00:19:07.507Z,0.00
2022-09-29T00:20:06.469Z,0.00
2022-09-29T00:21:06.476Z,0.00
2022-09-29T00:22:06.449Z,0.00
2022-09-29T00:23:06.439Z,0.00
2022-09-29T00:24:06.524Z,0.00
2022-09-29T00:25:06.434Z,0.00
2022-09-29T00:26:06.406Z,0.00
2022-09-29T00:27:06.414Z,0.00
2022-09-29T00:28:06.384Z,0.00
2022-09-29T00:29:06.366Z,0.00
2022-09-29T00:30:06.373Z,0.00
2022-09-29T00:31:06.419Z,0.00
2022-09-29T00:32:06.314Z,0.00
2022-09-29T00:33:06.314Z,0.00
2022-09-29T00:34:06.314Z,0.00
2022-09-29T00:35:06.323Z,0.00
2022-09-29T00:36:06.278Z,0.00
2022-09-29T00:37:06.298Z,0.00
2022-09-29T00:38:06.283Z,0.00
2022-09-29T00:39:06.223Z,0.00
2022-09-29T00:40:06.221Z,0.00
2022-09-29T00:41:06.213Z,0.00
2022-09-29T00:42:06.202Z,0.00
2022-09-29T00:43:06.179Z,0.00
2022-09-29T00:44:06.189Z,0.00
2022-09-29T00:45:06.223Z,0.00
2022-09-29T00:46:06.178Z,0.00
2022-09-29T00:47:06.199Z,0.00
2022-09-29T00:48:06.162Z,0.00
2022-09-29T00:49:06.101Z,0.00
2022-09-29T00:50:06.082Z,0.00
2022-09-29T00:51:06.087Z,0.00
2022-09-29T00:52:06.068Z,0.00
2022-09-29T00:53:06.075Z,0.00
2022-09-29T00:54:06.068Z,0.00
2022-09-29T00:55:06.120Z,0.00
2022-09-29T00:56:06.033Z,0.00
2022-09-29T00:57:06.018Z,0.00
2022-09-29T00:58:06.044Z,0.00
2022-09-29T00:59:05.975Z,0.00
2022-09-29T01:00:05.973Z,0.00
2022-09-29T01:01:05.987Z,0.00
2022-09-29T01:02:06.037Z,0.00
2022-09-29T01:03:05.934Z,0.00
2022-09-29T01:04:05.941Z,0.00
2022-09-29T01:05:05.907Z,0.00
2022-09-29T01:06:05.903Z,0.00
2022-09-29T01:07:05.883Z,0.00
2022-09-29T01:08:05.875Z,0.00
2022-09-29T01:09:05.971Z,0.00
2022-09-29T01:10:05.884Z,0.00
2022-09-29T01:11:05.893Z,0.00
2022-09-29T01:12:05.811Z,0.00
2022-09-29T01:13:05.870Z,0.00
2022-09-29T01:14:05.794Z,0.00
2022-09-29T01:15:05.923Z,0.00
2022-09-29T01:16:05.822Z,0.00
2022-09-29T01:17:05.816Z,0.00
2022-09-29T01:18:05.769Z,0.00
2022-09-29T01:19:05.751Z,0.00
2022-09-29T01:20:05.721Z,0.00
2022-09-29T01:21:05.739Z,0.00
2022-09-29T01:22:05.708Z,0.00
2022-09-29T01:23:05.682Z,0.00
2022-09-29T01:24:05.670Z,0.00
2022-09-29T01:25:05.799Z,0.00
2022-09-29T01:26:05.626Z,0.00
2022-09-29T01:27:05.651Z,0.00
2022-09-29T01:28:05.612Z,0.00
2022-09-29T01:29:05.602Z,0.00
2022-09-29T01:30:05.567Z,0.00
2022-09-29T01:31:05.670Z,0.00
2022-09-29T01:32:05.546Z,0.00
2022-09-29T01:33:05.593Z,0.00
2022-09-29T01:34:05.575Z,0.00
2022-09-29T01:35:05.745Z,0.00
2022-09-29T01:36:05.527Z,0.00
2022-09-29T01:37:05.524Z,0.00
2022-09-29T01:38:05.523Z,0.00
2022-09-29T01:39:05.463Z,0.00
2022-09-29T01:40:05.467Z,0.00
2022-09-29T01:41:05.482Z,0.00
2022-09-29T01:42:05.414Z,0.00
2022-09-29T01:43:05.514Z,0.00
2022-09-29T01:44:05.391Z,0.00
2022-09-29T01:45:05.423Z,0.00
2022-09-29T01:46:05.442Z,0.00
2022-09-29T01:47:05.889Z,0.00
2022-09-29T01:48:05.357Z,0.00
2022-09-29T01:49:05.331Z,0.00
2022-09-29T01:50:05.320Z,0.00
2022-09-29T01:51:05.317Z,0.00
2022-09-29T01:52:05.362Z,0.00
2022-09-29T01:53:05.288Z,0.00
2022-09-29T01:54:05.359Z,0.00
2022-09-29T01:55:05.277Z,0.00
2022-09-29T01:56:05.250Z,0.00
2022-09-29T01:57:05.268Z,0.00
2022-09-29T01:58:05.258Z,0.00
2022-09-29T01:59:05.243Z,0.00
2022-09-29T02:00:05.238Z,0.00
2022-09-29T02:01:05.261Z,0.00
2022-09-29T02:02:05.608Z,0.00
2022-09-29T02:03:05.170Z,0.00
2022-09-29T02:04:05.178Z,0.00
2022-09-29T02:05:05.239Z,0.00
2022-09-29T02:06:05.145Z,0.00
2022-09-29T02:07:05.153Z,0.00
2022-09-29T02:08:05.158Z,0.00
2022-09-29T02:09:05.108Z,0.00
2022-09-29T02:10:05.841Z,0.00
2022-09-29T02:11:05.072Z,0.00
2022-09-29T02:12:05.050Z,0.00
2022-09-29T02:13:05.033Z,0.00
2022-09-29T02:14:05.042Z,0.00
2022-09-29T02:15:05.034Z,0.00
2022-09-29T02:16:05.051Z,0.00
2022-09-29T02:17:05.093Z,0.00
2022-09-29T02:18:05.020Z,0.00
2022-09-29T02:19:04.949Z,0.00
2022-09-29T02:20:05.017Z,0.00
2022-09-29T02:21:05.178Z,0.00
2022-09-29T02:22:04.909Z,0.00
2022-09-29T02:23:04.900Z,0.00
2022-09-29T02:24:04.889Z,0.00
2022-09-29T02:25:04.930Z,0.00
2022-09-29T02:26:04.938Z,0.00
2022-09-29T02:27:04.867Z,0.00
2022-09-29T02:28:04.874Z,0.00
2022-09-29T02:29:04.846Z,0.00
2022-09-29T02:30:04.995Z,0.00
2022-09-29T02:31:04.853Z,0.00
2022-09-29T02:32:04.796Z,0.00
2022-09-29T02:33:04.783Z,0.00
2022-09-29T02:34:04.759Z,0.00
2022-09-29T02:35:04.779Z,0.00
2022-09-29T02:36:04.776Z,0.00
2022-09-29T02:37:04.761Z,0.00
2022-09-29T02:38:04.910Z,0.00
2022-09-29T02:39:04.694Z,0.00
2022-09-29T02:40:04.812Z,0.00
2022-09-29T02:41:04.783Z,0.00
2022-09-29T02:42:04.665Z,0.00
2022-09-29T02:43:04.673Z,0.00
2022-09-29T02:44:04.624Z,0.00
2022-09-29T02:45:04.751Z,0.00
2022-09-29T02:46:04.669Z,0.00
2022-09-29T02:47:04.611Z,0.00
2022-09-29T02:48:04.669Z,0.00
2022-09-29T02:49:04.613Z,0.00
2022-09-29T02:50:04.614Z,0.00
2022-09-29T02:51:04.542Z,0.00
2022-09-29T02:52:04.542Z,0.00
2022-09-29T02:53:04.530Z,0.00
2022-09-29T02:54:04.514Z,0.00
2022-09-29T02:55:04.512Z,0.00
2022-09-29T02:56:04.526Z,0.00
2022-09-29T02:57:04.526Z,0.00
2022-09-29T02:58:04.513Z,0.00
2022-09-29T02:59:04.451Z,0.00
2022-09-29T03:00:04.456Z,0.00
2022-09-29T03:01:04.535Z,0.00
2022-09-29T03:02:04.411Z,0.00
2022-09-29T03:03:04.410Z,0.00
2022-09-29T03:04:04.944Z,0.00
2022-09-29T03:05:04.419Z,0.00
2022-09-29T03:06:04.355Z,0.00
2022-09-29T03:07:04.428Z,0.00
2022-09-29T03:08:04.332Z,0.00
2022-09-29T03:09:04.380Z,0.00
2022-09-29T03:10:04.304Z,0.00
2022-09-29T03:11:04.356Z,0.00
2022-09-29T03:12:04.265Z,0.00
2022-09-29T03:13:04.288Z,0.00
2022-09-29T03:14:04.282Z,0.00
2022-09-29T03:15:04.283Z,0.00
2022-09-29T03:16:04.294Z,0.00
2022-09-29T03:17:04.333Z,0.00
2022-09-29T03:18:07.083Z,0.00
2022-09-29T03:19:05.182Z,0.00
2022-09-29T03:20:04.163Z,0.00
2022-09-29T03:21:05.109Z,0.00
2022-09-29T03:22:04.171Z,0.00
2022-09-29T03:23:04.133Z,0.00
2022-09-29T03:24:04.120Z,0.00
2022-09-29T03:25:04.098Z,0.00
2022-09-29T03:26:04.134Z,0.00
2022-09-29T03:27:04.119Z,0.00
2022-09-29T03:28:04.097Z,0.00
2022-09-29T03:29:04.097Z,0.00
2022-09-29T03:30:04.100Z,0.00
2022-09-29T03:31:04.127Z,0.00
2022-09-29T03:32:04.082Z,0.00
2022-09-29T03:33:04.038Z,0.00
2022-09-29T03:34:03.976Z,0.00
2022-09-29T03:35:03.996Z,0.00
2022-09-29T03:36:03.962Z,0.00
2022-09-29T03:37:03.996Z,0.00
2022-09-29T03:38:03.928Z,0.00
2022-09-29T03:39:03.944Z,0.00
2022-09-29T03:40:04.139Z,0.00
2022-09-29T03:41:03.980Z,0.00
2022-09-29T03:42:03.922Z,0.00
2022-09-29T03:43:04.115Z,0.00
2022-09-29T03:44:03.880Z,0.00
2022-09-29T03:45:03.884Z,0.00
2022-09-29T03:46:03.898Z,0.00
2022-09-29T03:47:03.837Z,0.00
2022-09-29T03:48:03.817Z,0.00
2022-09-29T03:49:03.854Z,0.00
2022-09-29T03:50:03.816Z,0.00
2022-09-29T03:51:03.843Z,0.00
2022-09-29T03:52:03.784Z,0.00
2022-09-29T03:53:04.441Z,0.00
2022-09-29T03:54:03.730Z,0.00
2022-09-29T03:55:03.726Z,0.00
2022-09-29T03:56:03.709Z,0.00
2022-09-29T03:57:03.691Z,0.00
2022-09-29T03:58:03.673Z,0.00
2022-09-29T03:59:03.680Z,0.00
2022-09-29T04:00:03.690Z,0.00
2022-09-29T04:01:03.795Z,0.00
2022-09-29T04:02:03.720Z,0.00
2022-09-29T04:03:03.825Z,0.00
2022-09-29T04:04:03.606Z,0.00
2022-09-29T04:05:03.620Z,0.00
2022-09-29T04:06:03.579Z,0.00
2022-09-29T04:07:03.563Z,0.00
2022-09-29T04:08:03.599Z,0.00
2022-09-29T04:09:03.546Z,0.00
2022-09-29T04:10:04.235Z,0.00
2022-09-29T04:11:03.583Z,0.00
2022-09-29T04:12:03.550Z,0.00
2022-09-29T04:13:03.541Z,0.00
2022-09-29T04:14:03.509Z,0.00
2022-09-29T04:15:03.453Z,0.00
2022-09-29T04:16:03.544Z,0.00
2022-09-29T04:17:03.559Z,0.00
2022-09-29T04:18:03.449Z,0.00
2022-09-29T04:19:03.413Z,0.00
2022-09-29T04:20:03.476Z,0.00
2022-09-29T04:21:03.479Z,0.00
2022-09-29T04:22:03.391Z,0.00
2022-09-29T04:23:03.405Z,0.00
2022-09-29T04:24:03.357Z,0.00
2022-09-29T04:25:03.367Z,0.00
2022-09-29T04:26:03.320Z,0.00
2022-09-29T04:27:03.298Z,0.00
2022-09-29T04:28:03.386Z,0.00
2022-09-29T04:29:03.350Z,0.00
2022-09-29T04:30:03.462Z,0.00
2022-09-29T04:31:03.385Z,0.00
2022-09-29T04:32:03.269Z,0.00
2022-09-29T04:33:03.265Z,0.00
2022-09-29T04:34:03.334Z,0.00
2022-09-29T04:35:03.251Z,0.00
2022-09-29T04:36:03.207Z,0.00
2022-09-29T04:37:03.253Z,0.00
2022-09-29T04:38:03.198Z,0.00
2022-09-29T04:39:03.155Z,0.00
2022-09-29T04:40:03.190Z,0.00
2022-09-29T04:41:03.173Z,0.00
2022-09-29T04:42:03.105Z,0.00
2022-09-29T04:43:03.114Z,0.00
2022-09-29T04:44:03.226Z,0.00
2022-09-29T04:45:03.068Z,0.00
2022-09-29T04:46:03.121Z,0.00
2022-09-29T04:47:03.128Z,0.00
2022-09-29T04:48:03.034Z,0.00
2022-09-29T04:49:03.013Z,0.00
2022-09-29T04:50:03.175Z,0.12
2022-09-29T04:51:03.011Z,0.17
2022-09-29T04:52:03.097Z,0.12
2022-09-29T04:53:03.031Z,0.00
2022-09-29T04:54:02.964Z,0.49
2022-09-29T04:55:02.960Z,0.42
2022-09-29T04:56:02.982Z,0.54
2022-09-29T04:57:02.961Z,0.74
2022-09-29T04:58:02.910Z,1.24
2022-09-29T04:59:02.890Z,1.51
2022-09-29T05:00:02.905Z,1.85
2022-09-29T05:01:02.924Z,1.75
2022-09-29T05:02:02.937Z,2.30
2022-09-29T05:03:02.888Z,2.94
2022-09-29T05:04:02.887Z,3.85
2022-09-29T05:05:02.883Z,4.50
2022-09-29T05:06:02.869Z,5.26
2022-09-29T05:07:02.787Z,5.66
2022-09-29T05:08:02.809Z,6.15
2022-09-29T05:09:02.755Z,7.39
2022-09-29T05:10:02.774Z,8.08
2022-09-29T05:11:02.759Z,8.79
2022-09-29T05:12:02.744Z,9.11
2022-09-29T05:13:02.733Z,9.86
2022-09-29T05:14:02.778Z,9.98
2022-09-29T05:15:02.753Z,10.40
2022-09-29T05:16:02.779Z,10.94
2022-09-29T05:17:02.740Z,10.99
2022-09-29T05:18:02.674Z,10.70
2022-09-29T05:19:02.681Z,10.67
2022-09-29T05:20:02.632Z,10.47
2022-09-29T05:21:23.220Z,10.99
2022-09-29T05:22:03.698Z,11.02
2022-09-29T05:23:02.652Z,10.62
2022-09-29T05:24:02.630Z,11.04
2022-09-29T05:25:02.578Z,10.99
2022-09-29T05:26:02.580Z,10.72
2022-09-29T05:27:02.563Z,10.67
2022-09-29T05:28:02.538Z,11.02
2022-09-29T05:29:02.600Z,10.79
2022-09-29T05:30:02.653Z,10.97
2022-09-29T05:31:02.549Z,11.07
2022-09-29T05:32:02.484Z,10.67
2022-09-29T05:33:02.560Z,11.09
2022-09-29T05:34:02.494Z,10.94
2022-09-29T05:35:02.494Z,11.44
2022-09-29T05:36:02.426Z,13.54
2022-09-29T05:37:02.428Z,13.39
2022-09-29T05:38:02.410Z,13.63
2022-09-29T05:39:02.378Z,13.59
2022-09-29T05:40:02.374Z,13.19
2022-09-29T05:41:02.439Z,12.99
2022-09-29T05:42:02.455Z,13.54
2022-09-29T05:43:02.367Z,13.39
2022-09-29T05:44:02.334Z,13.41
2022-09-29T05:45:02.354Z,13.31
2022-09-29T05:46:02.454Z,13.51
2022-09-29T05:47:02.339Z,13.34
2022-09-29T05:48:02.287Z,13.71
2022-09-29T05:49:02.274Z,13.17
2022-09-29T05:50:02.245Z,13.41
2022-09-29T05:51:02.266Z,13.59
2022-09-29T05:52:02.241Z,13.41
2022-09-29T05:53:02.223Z,13.51
2022-09-29T05:54:02.380Z,13.21
2022-09-29T05:55:02.212Z,13.71
2022-09-29T05:56:02.223Z,13.26
2022-09-29T05:57:02.299Z,13.59
2022-09-29T05:58:02.150Z,13.34
2022-09-29T05:59:02.138Z,13.71
2022-09-29T06:00:02.114Z,13.68
2022-09-29T06:01:02.119Z,13.63
2022-09-29T06:02:02.211Z,13.46
2022-09-29T06:03:02.128Z,13.21
2022-09-29T06:04:02.116Z,13.49
2022-09-29T06:05:02.069Z,13.54
2022-09-29T06:06:02.120Z,13.56
2022-09-29T06:07:02.145Z,13.51
2022-09-29T06:08:02.090Z,13.73
2022-09-29T06:09:01.991Z,13.78
2022-09-29T06:10:02.019Z,12.72
2022-09-29T06:11:02.351Z,13.63
2022-09-29T06:12:01.990Z,13.17
2022-09-29T06:13:02.077Z,13.29
2022-09-29T06:14:02.018Z,13.76
2022-09-29T06:15:01.937Z,13.29
2022-09-29T06:16:02.020Z,13.46
2022-09-29T06:17:01.905Z,13.83
2022-09-29T06:18:01.998Z,13.59
2022-09-29T06:19:01.925Z,13.46
2022-09-29T06:20:01.885Z,13.59
2022-09-29T06:21:01.897Z,13.34
2022-09-29T06:22:01.862Z,13.76
2022-09-29T06:23:01.823Z,13.86
2022-09-29T06:24:01.893Z,13.41
2022-09-29T06:25:01.827Z,13.66
2022-09-29T06:26:01.803Z,13.09
2022-09-29T06:27:01.797Z,13.88
2022-09-29T06:28:01.759Z,13.39
2022-09-29T06:29:01.773Z,13.46
2022-09-29T06:30:01.734Z,13.83
2022-09-29T06:31:01.735Z,13.49
2022-09-29T06:32:01.950Z,13.63
2022-09-29T06:33:01.711Z,13.63
2022-09-29T06:34:01.790Z,13.61
2022-09-29T06:35:01.662Z,13.86
2022-09-29T06:36:01.728Z,13.31
2022-09-29T06:37:01.730Z,13.68
2022-09-29T06:38:01.668Z,13.66
2022-09-29T06:39:01.785Z,13.96
2022-09-29T06:40:01.608Z,13.68
2022-09-29T06:41:01.638Z,13.93
2022-09-29T06:42:01.589Z,13.59
2022-09-29T06:43:01.627Z,13.91
2022-09-29T06:44:01.630Z,13.61
2022-09-29T06:45:01.571Z,13.91
2022-09-29T06:46:01.606Z,13.29
2022-09-29T06:47:01.586Z,13.76
2022-09-29T06:48:01.533Z,13.81
2022-09-29T06:49:01.521Z,13.71
2022-09-29T06:50:12.354Z,13.78
2022-09-29T06:51:09.716Z,13.63
2022-09-29T06:52:12.927Z,13.54
2022-09-29T06:53:04.529Z,13.49
2022-09-29T06:54:11.108Z,13.63
2022-09-29T06:55:02.403Z,13.88
2022-09-29T06:56:01.781Z,13.68
2022-09-29T06:57:01.425Z,13.09
2022-09-29T06:58:04.058Z,14.01
2022-09-29T06:59:01.368Z,13.76
2022-09-29T07:00:01.391Z,13.71
2022-09-29T07:01:01.404Z,13.86
2022-09-29T07:02:01.363Z,13.51
2022-09-29T07:03:01.355Z,13.49
2022-09-29T07:04:01.403Z,13.66
2022-09-29T07:05:01.336Z,13.71
2022-09-29T07:06:18.832Z,13.81
2022-09-29T07:07:02.308Z,13.88
2022-09-29T07:08:01.610Z,13.71
2022-09-29T07:09:01.380Z,13.31
2022-09-29T07:10:01.259Z,13.73
2022-09-29T07:11:01.256Z,13.44
2022-09-29T07:12:02.058Z,13.41
2022-09-29T07:13:01.177Z,13.76
2022-09-29T07:14:01.239Z,13.51
2022-09-29T07:15:01.168Z,13.68
2022-09-29T07:16:01.206Z,13.78
2022-09-29T07:17:01.178Z,13.66
2022-09-29T07:18:01.218Z,13.96
2022-09-29T07:19:01.117Z,13.26
2022-09-29T07:20:01.111Z,13.71
2022-09-29T07:21:01.207Z,13.76
2022-09-29T07:22:01.063Z,13.71
2022-09-29T07:23:01.106Z,13.68
2022-09-29T07:24:02.392Z,13.71
2022-09-29T07:25:01.046Z,13.83
2022-09-29T07:26:01.108Z,13.24
2022-09-29T07:27:01.006Z,14.05
2022-09-29T07:28:00.985Z,14.01
2022-09-29T07:29:01.004Z,13.73
2022-09-29T07:30:04.021Z,13.93
2022-09-29T07:31:12.293Z,13.86
2022-09-29T07:32:02.054Z,13.56
2022-09-29T07:33:02.541Z,13.24
2022-09-29T07:34:00.995Z,13.88
2022-09-29T07:35:00.904Z,13.88
2022-09-29T07:36:00.893Z,13.61
2022-09-29T07:37:01.019Z,13.66
2022-09-29T07:38:00.874Z,13.68
2022-09-29T07:39:01.062Z,13.61
2022-09-29T07:40:00.891Z,13.93
2022-09-29T07:41:00.876Z,13.59
2022-09-29T07:42:01.010Z,13.44
2022-09-29T07:43:00.814Z,13.41
2022-09-29T07:44:00.830Z,13.71
2022-09-29T07:45:00.772Z,13.68
2022-09-29T07:46:00.826Z,13.59
2022-09-29T07:47:00.915Z,13.73
2022-09-29T07:48:00.737Z,13.31
2022-09-29T07:49:00.778Z,13.91
2022-09-29T07:50:00.729Z,13.34
2022-09-29T07:51:00.697Z,13.86
2022-09-29T07:52:00.721Z,13.68
2022-09-29T07:53:00.657Z,13.76
2022-09-29T07:54:00.691Z,13.29
2022-09-29T07:55:00.627Z,13.21
2022-09-29T07:56:00.772Z,13.54
2022-09-29T07:57:00.668Z,13.26
2022-09-29T07:58:00.605Z,13.88
2022-09-29T07:59:00.609Z,13.31
2022-09-29T08:00:00.591Z,13.88
2022-09-29T08:01:00.646Z,13.59
2022-09-29T08:02:00.584Z,13.59
2022-09-29T08:03:00.558Z,13.68
2022-09-29T08:04:00.590Z,12.89
2022-09-29T08:05:04.281Z,13.71
2022-09-29T08:06:01.509Z,13.96
2022-09-29T08:07:00.496Z,13.59
2022-09-29T08:08:00.504Z,13.66
2022-09-29T08:09:04.759Z,13.76
2022-09-29T08:10:10.895Z,13.73
2022-09-29T08:11:01.450Z,13.86
2022-09-29T08:12:07.499Z,13.59
2022-09-29T08:13:01.440Z,13.76
2022-09-29T08:14:00.503Z,13.24
2022-09-29T08:15:00.384Z,13.17
2022-09-29T08:16:00.405Z,13.61
2022-09-29T08:17:00.501Z,13.51
2022-09-29T08:18:00.339Z,13.73
2022-09-29T08:19:00.426Z,13.76
2022-09-29T08:20:00.322Z,13.39
2022-09-29T08:21:03.051Z,13.54
2022-09-29T08:22:00.298Z,13.46
2022-09-29T08:23:00.310Z,13.59
2022-09-29T08:24:00.261Z,13.49
2022-09-29T08:25:00.320Z,13.31
2022-09-29T08:26:02.015Z,12.82
2022-09-29T08:27:07.191Z,13.71
2022-09-29T08:28:01.217Z,13.61
2022-09-29T08:29:07.670Z,13.81
2022-09-29T08:30:01.191Z,13.71
2022-09-29T08:31:04.119Z,13.91
2022-09-29T08:32:00.241Z,13.96
2022-09-29T08:33:00.183Z,14.01
2022-09-29T08:34:00.138Z,14.01
2022-09-29T08:35:00.145Z,13.71
2022-09-29T08:36:00.227Z,13.46
2022-09-29T08:37:00.255Z,13.51
2022-09-29T08:38:00.099Z,12.92
2022-09-29T08:39:00.179Z,13.49
2022-09-29T08:40:00.063Z,13.54
2022-09-29T08:41:00.198Z,13.31
2022-09-29T08:42:00.035Z,13.54
2022-09-29T08:43:00.058Z,13.91
2022-09-29T08:44:00.012Z,13.41
2022-09-29T08:45:11.342Z,13.31
2022-09-29T08:46:01.468Z,13.31
2022-09-29T08:47:09.247Z,13.81
2022-09-29T08:48:02.068Z,13.61
2022-09-29T08:48:59.949Z,13.81
2022-09-29T08:49:59.945Z,13.83
2022-09-29T08:51:00.012Z,13.91
2022-09-29T08:52:11.158Z,13.31
2022-09-29T08:53:00.940Z,13.12
2022-09-29T08:54:03.684Z,13.29
2022-09-29T08:55:01.781Z,13.34
2022-09-29T08:56:00.884Z,13.26
2022-09-29T08:56:59.858Z,13.44
2022-09-29T08:57:59.847Z,13.31
2022-09-29T08:58:59.818Z,14.01
2022-09-29T08:59:59.811Z,13.71
2022-09-29T09:00:59.828Z,13.88
2022-09-29T09:01:59.819Z,13.68
2022-09-29T09:02:59.903Z,13.86
2022-09-29T09:03:59.747Z,13.96
2022-09-29T09:04:59.778Z,13.78
2022-09-29T09:05:59.729Z,13.76
2022-09-29T09:06:59.719Z,13.81
2022-09-29T09:08:02.015Z,13.29
2022-09-29T09:08:59.686Z,13.66
2022-09-29T09:09:59.718Z,13.86
2022-09-29T09:10:59.702Z,13.76
2022-09-29T09:11:59.726Z,13.39
2022-09-29T09:12:59.637Z,13.83
2022-09-29T09:13:59.647Z,13.49
2022-09-29T09:14:59.781Z,13.78
2022-09-29T09:15:59.626Z,13.88
2022-09-29T09:16:59.652Z,13.88
2022-09-29T09:17:59.597Z,13.83
2022-09-29T09:18:59.586Z,13.83
2022-09-29T09:19:59.668Z,13.73
2022-09-29T09:20:59.735Z,13.81
2022-09-29T09:21:59.580Z,13.36
2022-09-29T09:22:59.524Z,13.49
2022-09-29T09:24:00.796Z,13.56
2022-09-29T09:24:59.493Z,13.26
2022-09-29T09:25:59.534Z,13.76
2022-09-29T09:26:59.460Z,13.78
2022-09-29T09:27:59.564Z,13.93
2022-09-29T09:28:59.440Z,13.76
2022-09-29T09:29:59.585Z,13.31
2022-09-29T09:30:59.462Z,13.78
2022-09-29T09:31:59.410Z,13.59
2022-09-29T09:32:59.424Z,13.98
2022-09-29T09:34:05.598Z,13.68
2022-09-29T09:35:12.727Z,13.71
2022-09-29T09:36:00.454Z,13.68
2022-09-29T09:37:07.341Z,13.73
2022-09-29T09:38:00.306Z,13.71
2022-09-29T09:38:59.298Z,13.76
2022-09-29T09:39:59.326Z,13.66
2022-09-29T09:40:59.443Z,13.91
2022-09-29T09:42:00.283Z,13.36
2022-09-29T09:42:59.263Z,13.56
2022-09-29T09:43:59.358Z,13.83
2022-09-29T09:44:59.217Z,13.61
2022-09-29T09:45:59.343Z,13.73
2022-09-29T09:46:59.186Z,13.56
2022-09-29T09:47:59.220Z,13.83
2022-09-29T09:48:59.195Z,13.83
2022-09-29T09:49:59.215Z,13.76
2022-09-29T09:50:59.199Z,13.76
2022-09-29T09:51:59.166Z,13.07
2022-09-29T09:52:59.158Z,13.86
2022-09-29T09:53:59.092Z,13.83
2022-09-29T09:54:59.135Z,13.49
2022-09-29T09:55:59.092Z,13.91
2022-09-29T09:56:59.110Z,13.31
2022-09-29T09:57:59.063Z,13.76
2022-09-29T09:58:59.092Z,13.36
2022-09-29T09:59:59.031Z,13.36
2022-09-29T10:00:59.131Z,13.54
2022-09-29T10:01:59.043Z,13.76
2022-09-29T10:02:58.981Z,13.86
2022-09-29T10:03:58.993Z,13.81
2022-09-29T10:04:58.960Z,14.01
2022-09-29T10:05:58.940Z,13.21
2022-09-29T10:06:58.955Z,13.49
2022-09-29T10:07:58.926Z,13.66
2022-09-29T10:08:58.968Z,13.63
2022-09-29T10:09:58.913Z,13.98
2022-09-29T10:10:59.711Z,13.46
2022-09-29T10:11:58.898Z,13.61
2022-09-29T10:12:59.977Z,13.46
2022-09-29T10:13:58.837Z,13.91
2022-09-29T10:14:58.838Z,13.96
2022-09-29T10:15:58.828Z,13.83
2022-09-29T10:16:58.893Z,13.17
2022-09-29T10:17:58.816Z,14.01
2022-09-29T10:18:58.796Z,13.49
2022-09-29T10:19:58.757Z,13.93
2022-09-29T10:20:58.755Z,13.78
2022-09-29T10:21:59.203Z,12.99
2022-09-29T10:22:58.949Z,14.01
2022-09-29T10:23:58.817Z,13.51
2022-09-29T10:24:58.736Z,13.61
2022-09-29T10:25:58.738Z,13.19
2022-09-29T10:26:58.722Z,13.73
2022-09-29T10:27:58.903Z,13.68
2022-09-29T10:28:58.684Z,14.03
2022-09-29T10:29:58.643Z,14.01
2022-09-29T10:30:58.674Z,14.03
2022-09-29T10:31:58.641Z,13.88
2022-09-29T10:32:58.602Z,13.98
2022-09-29T10:33:58.581Z,13.21
2022-09-29T10:34:58.631Z,13.98
2022-09-29T10:35:58.707Z,13.98
2022-09-29T10:36:58.782Z,13.91
2022-09-29T10:37:58.575Z,14.01
2022-09-29T10:39:02.315Z,12.84
2022-09-29T10:39:58.645Z,13.68
2022-09-29T10:40:58.564Z,14.01
2022-09-29T10:41:58.521Z,13.71
2022-09-29T10:42:58.573Z,13.54
2022-09-29T10:43:58.537Z,13.86
2022-09-29T10:44:58.491Z,13.21
2022-09-29T10:45:58.584Z,13.56
2022-09-29T10:46:58.438Z,13.78
2022-09-29T10:47:58.430Z,13.49
2022-09-29T10:48:58.419Z,13.91
2022-09-29T10:49:58.390Z,13.81
2022-09-29T10:50:58.400Z,13.83
2022-09-29T10:51:58.456Z,14.08
2022-09-29T10:52:58.426Z,13.54
2022-09-29T10:53:58.346Z,13.46
2022-09-29T10:54:58.346Z,13.29
2022-09-29T10:55:58.295Z,13.86
2022-09-29T10:56:58.311Z,13.78
2022-09-29T10:57:58.371Z,13.91
2022-09-29T10:59:01.812Z,13.66
2022-09-29T10:59:59.244Z,12.82
2022-09-29T11:00:58.306Z,13.86
2022-09-29T11:01:58.262Z,13.36
2022-09-29T11:02:58.214Z,13.49
2022-09-29T11:03:58.201Z,13.91
2022-09-29T11:04:58.193Z,13.61
2022-09-29T11:05:58.204Z,13.73
2022-09-29T11:06:58.198Z,13.96
2022-09-29T11:07:58.133Z,13.91
2022-09-29T11:08:58.218Z,13.34
2022-09-29T11:09:58.245Z,13.41
2022-09-29T11:10:58.104Z,13.78
2022-09-29T11:12:01.621Z,14.08
2022-09-29T11:12:59.238Z,13.61
2022-09-29T11:13:58.073Z,13.51
2022-09-29T11:14:58.070Z,13.29
2022-09-29T11:15:58.041Z,13.81
2022-09-29T11:16:58.078Z,14.05
2022-09-29T11:17:58.087Z,13.63
2022-09-29T11:18:58.000Z,13.81
2022-09-29T11:19:57.999Z,13.59
2022-09-29T11:20:58.071Z,13.61
2022-09-29T11:21:57.979Z,13.83
2022-09-29T11:22:57.959Z,13.83
2022-09-29T11:23:57.973Z,13.66
2022-09-29T11:24:58.079Z,13.34
2022-09-29T11:25:57.948Z,13.34
2022-09-29T11:26:57.978Z,13.49
2022-09-29T11:27:57.887Z,13.88
2022-09-29T11:28:57.887Z,14.05
2022-09-29T11:29:57.919Z,13.81
2022-09-29T11:30:57.866Z,14.01
2022-09-29T11:31:57.845Z,13.71
2022-09-29T11:32:57.835Z,13.83
2022-09-29T11:33:57.797Z,13.98
2022-09-29T11:34:57.849Z,13.96
2022-09-29T11:35:57.785Z,13.86
2022-09-29T11:36:57.870Z,13.88
2022-09-29T11:37:57.756Z,14.08
2022-09-29T11:38:57.956Z,13.81
2022-09-29T11:39:57.784Z,14.05
2022-09-29T11:40:57.726Z,13.71
2022-09-29T11:41:57.754Z,14.05
2022-09-29T11:42:57.773Z,13.49
2022-09-29T11:43:57.683Z,13.98
2022-09-29T11:44:57.681Z,13.76
2022-09-29T11:45:57.773Z,14.03
2022-09-29T11:46:57.640Z,13.86
2022-09-29T11:47:57.696Z,13.24
2022-09-29T11:48:57.620Z,13.81
2022-09-29T11:49:57.632Z,14.08
2022-09-29T11:50:57.668Z,13.88
2022-09-29T11:51:57.585Z,13.56
2022-09-29T11:52:57.775Z,14.01
2022-09-29T11:53:57.585Z,13.63
2022-09-29T11:54:57.656Z,13.63
2022-09-29T11:55:57.601Z,13.63
2022-09-29T11:56:57.543Z,13.51
2022-09-29T11:57:57.502Z,14.03
2022-09-29T11:58:57.484Z,14.10
2022-09-29T11:59:57.492Z,14.01
2022-09-29T12:00:57.452Z,14.13
2022-09-29T12:01:57.481Z,13.39
2022-09-29T12:02:57.526Z,13.63
2022-09-29T12:03:57.439Z,13.88
2022-09-29T12:04:57.420Z,13.54
2022-09-29T12:05:57.510Z,14.08
2022-09-29T12:06:57.418Z,13.83
2022-09-29T12:07:57.430Z,13.88
2022-09-29T12:08:57.389Z,13.46
2022-09-29T12:09:57.345Z,13.46
2022-09-29T12:10:57.331Z,13.91
2022-09-29T12:12:18.785Z,13.83
2022-09-29T12:12:58.308Z,13.73
2022-09-29T12:13:57.291Z,13.46
2022-09-29T12:14:57.299Z,13.59
2022-09-29T12:15:57.266Z,13.76
2022-09-29T12:16:57.351Z,13.56
2022-09-29T12:17:57.237Z,13.78
2022-09-29T12:18:57.237Z,13.59
2022-09-29T12:19:57.222Z,14.01
2022-09-29T12:20:57.205Z,13.81
2022-09-29T12:21:57.185Z,13.34
2022-09-29T12:22:57.190Z,14.10
2022-09-29T12:23:57.174Z,13.56
2022-09-29T12:24:57.136Z,14.13
2022-09-29T12:25:57.197Z,13.76
2022-09-29T12:26:57.120Z,13.96
2022-09-29T12:27:57.142Z,13.73
2022-09-29T12:28:57.122Z,13.31
2022-09-29T12:29:57.092Z,13.91
2022-09-29T12:30:57.109Z,13.76
2022-09-29T12:31:57.064Z,13.88
2022-09-29T12:32:57.172Z,13.91
2022-09-29T12:33:57.053Z,13.68
2022-09-29T12:34:57.035Z,13.12
2022-09-29T12:35:57.082Z,13.93
2022-09-29T12:36:57.001Z,13.81
2022-09-29T12:37:56.981Z,13.73
2022-09-29T12:38:56.982Z,13.91
2022-09-29T12:39:56.973Z,13.68
2022-09-29T12:40:56.935Z,13.41
2022-09-29T12:41:56.940Z,13.78
2022-09-29T12:42:56.931Z,14.01
2022-09-29T12:43:56.910Z,14.15
2022-09-29T12:44:56.925Z,13.54
2022-09-29T12:45:56.973Z,13.59
2022-09-29T12:46:56.879Z,14.18
2022-09-29T12:47:56.881Z,13.93
2022-09-29T12:48:56.848Z,13.68
2022-09-29T12:49:56.831Z,14.01
2022-09-29T12:50:57.007Z,14.15
2022-09-29T12:51:56.840Z,13.83
2022-09-29T12:52:56.825Z,13.59
2022-09-29T12:53:56.786Z,14.08
2022-09-29T12:54:56.828Z,13.44
2022-09-29T12:55:56.772Z,13.93
2022-09-29T12:56:56.740Z,13.61
2022-09-29T12:57:56.759Z,14.23
2022-09-29T12:58:56.712Z,14.01
2022-09-29T12:59:56.694Z,13.88
2022-09-29T13:00:56.755Z,13.68
2022-09-29T13:01:56.731Z,13.88